Aviation Forecast PDF Print E-mail

 
met_logo

NATIONAL METEOROLOGICAL SERVICE OF BELIZE

Area Forecast for the Country of Belize


For the period from:

1200 28 MAY 2017

to

2400 28 MAY 2017

All Heights in the forecast are above sea level. PS= Positive, MS= Minus. All times are UTC.


A.

SPECIAL FEATURES of the METEOROLOGICAL SITUATION

DRIER CONDITIONS SETTING IN....

B.

HEIGHT (Ft)

WIND (True Degrees and Knots)

TEMPERATURE (°C)

Surface

10010

  

PS31-34

2,000

11020

PS22

5,000

13515

PS19

10,000

09015

PS11

C.

CLOUDS (Amount, Type, Ceiling and Top(optional))

 

 FEW/SCT CB BASES 1,000-1,500FT TOPS NEAR 32,000FT.

 

 SCT/BKN CU BASES 1,400-2,400FT. TOPS 8,000-10,000FT


D.

SURFACE VISIBILITY:  GREATER THAN 10KM. REDUCED TO 2-8KM IN TSRA / SHRA AND 500M IN HILL FOG. 


E.

WEATHER:  CLOUDY WITH SUNNY BREAKS WITH ISOLATED SHOWERS OR THUNDERSTORMS. HILL FOG INLAND.  


Remarks, Warnings, Turbulence

Barometric Changes

LOW CLOUD COVERING HILLS;

MOD TURB NEAR SFC AND IN TCU/CB

RISING (DIURNALLY)

G.

OUTLOOK:

TO 12Z 29 MAY 2017

CLOUDY SPELLS WITH A FEW SHOWERS AND ISOLATED THUNDERSTORMS  OVER THE SOUTH.

H. 

TAF MZBZ

270900Z 2812/2912 10010KT 9999 SCT023= 

Meteorological Office:

BELIZE

Issued at:

1130 28 MAY 2017

Forecaster:

Wellington